Maunalei — KFMV — position and weather

sailwx.info

Track history (hours):
 
Tides and Currents Weather Stations Pressure Air Temp Water Temp Dewpoint Dewpoint Depression Visibility Wind Speed Wind Dir Waves Ship Positions

Maunalei

Owner: MATSON NAVIGATION COMPANY, INC, Oakland, CA. More information available from US FCC via Universal Licensing System and Coast Guard Vessel Documentation Center.

Last reported at 2018-Jun-20 00:00 UTC. Time now 2018-Jun-22 00:00 UTC.
Position N 48°12' E 169°30'.

Type: Ship. MMSI: 303584000.

Wind from 280 at 13 knots

Barometer 1019.0 mb
Air temperature 48.0 ° C
Visibility: greater than 5.4 NM
Dewpoint 45.7 ° C
Water temperature 45.0 ° C

Date/timePositionNaut miles runAvg speedWind from/ knotsBaromVisibWave heightAir tempDewpointWater temp
2018-Jun-20 00:00N 48°12' E 169°30'29612.3 280 / 131019.0 5.4 48.045.745.0
2018-Jun-19 00:00N 48°24' E 176°54'53222.2 290 / 21020.010.8 5.0 2.5 5.0
2018-Jun-18 00:00N 47°00' E 163°54'   350 / 71020.510.8 5.0 2.5 5.0
2018-Jun-13 22:19N 31°19' E 123°10'921.7
2018-Jun-13 21:55N 31°12' E 123°04'1920.1
2018-Jun-13 20:58N 31°06' E 122°43'919.6
2018-Jun-13 20:30N 31°05' E 122°32'712.2
2018-Jun-13 19:56N 31°05' E 122°24'35 1.8
2018-Jun-13 00:06N 31°18' E 121°46'112.5
2018-Jun-13 00:00N 31°18' E 121°47'611.8
2018-Jun-12 23:30N 31°16' E 121°54'713.5
2018-Jun-12 23:00N 31°15' E 122°01'5 9.2
2018-Jun-12 22:30N 31°13' E 122°07'5 9.5
2018-Jun-12 22:00N 31°11' E 122°11'610.9
2018-Jun-12 21:29N 31°07' E 122°16'611.7
2018-Jun-12 21:00N 31°06' E 122°23'5 9.8
2018-Jun-12 20:29N 31°06' E 122°29'5 9.3
2018-Jun-12 20:00N 31°07' E 122°34'4 8.2
2018-Jun-12 19:28N 31°08' E 122°39'1 1.1
2018-Jun-12 18:55N 31°08' E 122°39'0 0.0
2018-Jun-12 18:01N 31°08' E 122°39'0 0.3
2018-Jun-12 17:52N 31°08' E 122°39'0 0.0
2018-Jun-12 17:25N 31°08' E 122°39'0 0.1
2018-Jun-12 16:57N 31°08' E 122°39'0 0.0
2018-Jun-12 16:24N 31°08' E 122°39'0 0.1
2018-Jun-12 15:54N 31°08' E 122°39'0 0.1
2018-Jun-12 12:59N 31°08' E 122°39'0 0.0
2018-Jun-12 12:10N 31°08' E 122°39'0 0.1
2018-Jun-12 11:52N 31°08' E 122°39'0 0.1
2018-Jun-12 11:13N 31°08' E 122°39'0 0.1
2018-Jun-12 10:58N 31°08' E 122°39'0 0.1
2018-Jun-12 10:25N 31°08' E 122°39'0 0.1
2018-Jun-12 09:57N 31°08' E 122°39'0 0.1
2018-Jun-12 09:30N 31°08' E 122°39'0 0.1
2018-Jun-12 09:00N 31°08' E 122°39'0 0.1
2018-Jun-12 08:30N 31°08' E 122°39'0 0.0
2018-Jun-12 08:00N 31°08' E 122°39'0 0.1
2018-Jun-12 07:29N 31°08' E 122°39'0 0.0
2018-Jun-12 06:59N 31°08' E 122°39'0 0.0
2018-Jun-12 06:29N 31°08' E 122°39'1 1.1
2018-Jun-12 06:00N 31°08' E 122°40'3 6.3
2018-Jun-12 05:28N 31°07' E 122°44'1217.9
2018-Jun-12 04:47N 31°07' E 122°58'518.7
2018-Jun-12 04:30N 31°06' E 123°04'3 2.7
2018-Jun-12 03:31N 31°05' E 123°01'020.3
2018-Jun-12 03:30N 31°05' E 123°01'3519.0
2018-Jun-12 01:38N 30°30' E 122°60'820.3
2018-Jun-12 01:14N 30°22' E 123°01'  
Track history (hours):
 
Tides and Currents Weather Stations Pressure Air Temp Water Temp Dewpoint Dewpoint Depression Visibility Wind Speed Wind Dir Waves Ship Positions

Maunalei

Owner: MATSON NAVIGATION COMPANY, INC, Oakland, CA. More information available from US FCC via Universal Licensing System and Coast Guard Vessel Documentation Center.

Last reported at 2018-Jun-20 00:00 UTC. Time now 2018-Jun-22 00:00 UTC.
Position N 48°12' E 169°30'.

Type: Ship. MMSI: 303584000.

Wind from 280 at 13 knots

Barometer 1019.0 mb
Air temperature 48.0 ° C
Visibility: greater than 5.4 NM
Dewpoint 45.7 ° C
Water temperature 45.0 ° C

Date/timePositionNaut miles runAvg speedWind from/ knotsBaromVisibWave heightAir tempDewpointWater temp
2018-Jun-20 00:00N 48°12' E 169°30'29612.3 280 / 131019.0 5.4 48.045.745.0
2018-Jun-19 00:00N 48°24' E 176°54'53222.2 290 / 21020.010.8 5.0 2.5 5.0
2018-Jun-18 00:00N 47°00' E 163°54'   350 / 71020.510.8 5.0 2.5 5.0
2018-Jun-13 22:19N 31°19' E 123°10'921.7
2018-Jun-13 21:55N 31°12' E 123°04'1920.1
2018-Jun-13 20:58N 31°06' E 122°43'919.6
2018-Jun-13 20:30N 31°05' E 122°32'712.2
2018-Jun-13 19:56N 31°05' E 122°24'35 1.8
2018-Jun-13 00:06N 31°18' E 121°46'112.5
2018-Jun-13 00:00N 31°18' E 121°47'611.8
2018-Jun-12 23:30N 31°16' E 121°54'713.5
2018-Jun-12 23:00N 31°15' E 122°01'5 9.2
2018-Jun-12 22:30N 31°13' E 122°07'5 9.5
2018-Jun-12 22:00N 31°11' E 122°11'610.9
2018-Jun-12 21:29N 31°07' E 122°16'611.7
2018-Jun-12 21:00N 31°06' E 122°23'5 9.8
2018-Jun-12 20:29N 31°06' E 122°29'5 9.3
2018-Jun-12 20:00N 31°07' E 122°34'4 8.2
2018-Jun-12 19:28N 31°08' E 122°39'1 1.1
2018-Jun-12 18:55N 31°08' E 122°39'0 0.0
2018-Jun-12 18:01N 31°08' E 122°39'0 0.3
2018-Jun-12 17:52N 31°08' E 122°39'0 0.0
2018-Jun-12 17:25N 31°08' E 122°39'0 0.1
2018-Jun-12 16:57N 31°08' E 122°39'0 0.0
2018-Jun-12 16:24N 31°08' E 122°39'0 0.1
2018-Jun-12 15:54N 31°08' E 122°39'0 0.1
2018-Jun-12 12:59N 31°08' E 122°39'0 0.0
2018-Jun-12 12:10N 31°08' E 122°39'0 0.1
2018-Jun-12 11:52N 31°08' E 122°39'0 0.1
2018-Jun-12 11:13N 31°08' E 122°39'0 0.1
2018-Jun-12 10:58N 31°08' E 122°39'0 0.1
2018-Jun-12 10:25N 31°08' E 122°39'0 0.1
2018-Jun-12 09:57N 31°08' E 122°39'0 0.1
2018-Jun-12 09:30N 31°08' E 122°39'0 0.1
2018-Jun-12 09:00N 31°08' E 122°39'0 0.1
2018-Jun-12 08:30N 31°08' E 122°39'0 0.0
2018-Jun-12 08:00N 31°08' E 122°39'0 0.1
2018-Jun-12 07:29N 31°08' E 122°39'0 0.0
2018-Jun-12 06:59N 31°08' E 122°39'0 0.0
2018-Jun-12 06:29N 31°08' E 122°39'1 1.1
2018-Jun-12 06:00N 31°08' E 122°40'3 6.3
2018-Jun-12 05:28N 31°07' E 122°44'1217.9
2018-Jun-12 04:47N 31°07' E 122°58'518.7
2018-Jun-12 04:30N 31°06' E 123°04'3 2.7
2018-Jun-12 03:31N 31°05' E 123°01'020.3
2018-Jun-12 03:30N 31°05' E 123°01'3519.0
2018-Jun-12 01:38N 30°30' E 122°60'820.3
2018-Jun-12 01:14N 30°22' E 123°01'  

Dump ship's entire track history